createdAt,value
2023-02-05T00:00:00.626Z,103358.16
2023-02-05T00:02:27.071Z,103358.13
2023-02-05T00:04:53.576Z,103369.50
2023-02-05T00:07:20.007Z,103360.75
2023-02-05T00:09:46.482Z,103367.75
2023-02-05T00:12:12.946Z,103362.53
2023-02-05T00:14:39.388Z,103361.63
2023-02-05T00:17:06.029Z,103347.66
2023-02-05T00:19:32.527Z,103345.91
2023-02-05T00:21:58.965Z,103349.41
2023-02-05T00:24:25.434Z,103347.66
2023-02-05T00:26:51.855Z,103345.06
2023-02-05T00:29:18.560Z,103338.03
2023-02-05T00:31:45.096Z,103336.31
2023-02-05T00:34:11.649Z,103337.16
2023-02-05T00:36:38.132Z,103338.03
2023-02-05T00:39:04.672Z,103338.03
2023-02-05T00:41:31.330Z,103350.28
2023-02-05T00:43:57.794Z,103347.66
2023-02-05T00:46:24.270Z,103354.59
2023-02-05T00:48:50.743Z,103351.13
2023-02-05T00:51:17.269Z,103341.53
2023-02-05T00:53:43.705Z,103338.03
2023-02-05T00:56:10.226Z,103345.03
2023-02-05T00:58:36.911Z,103347.66
2023-02-05T01:01:04.342Z,103334.53
2023-02-05T01:03:31.191Z,103334.53
2023-02-05T01:05:57.786Z,103323.19
2023-02-05T01:08:24.425Z,103331.91
2023-02-05T01:10:52.259Z,103319.72
2023-02-05T01:13:19.198Z,103310.97
2023-02-05T01:15:46.196Z,103317.09
2023-02-05T01:18:13.121Z,103310.06
2023-02-05T01:20:40.772Z,103316.19
2023-02-05T01:23:07.513Z,103303.09
2023-02-05T01:25:34.271Z,103305.75
2023-02-05T01:28:01.106Z,103303.09
2023-02-05T01:30:27.562Z,103302.25
2023-02-05T01:32:54.006Z,103301.38
2023-02-05T01:35:20.646Z,103297.84
2023-02-05T01:37:47.111Z,103301.34
2023-02-05T01:40:17.276Z,103295.25
2023-02-05T01:42:44.029Z,103295.25
2023-02-05T01:45:22.650Z,103299.59
2023-02-05T01:47:51.104Z,103293.47
2023-02-05T01:50:21.781Z,103286.44
2023-02-05T01:52:48.643Z,103279.47
2023-02-05T01:55:15.940Z,103286.47
2023-02-05T01:57:42.631Z,103279.47
2023-02-05T02:00:10.508Z,103269.84
2023-02-05T02:02:38.068Z,103268.13
2023-02-05T02:08:45.411Z,103264.59
2023-02-05T02:11:17.150Z,103262.84
2023-02-05T02:13:45.438Z,103252.38
2023-02-05T02:16:12.559Z,103248.88
2023-02-05T02:18:39.436Z,103245.41
2023-02-05T02:21:14.832Z,103247.19
2023-02-05T02:24:02.496Z,103241.00
2023-02-05T02:26:52.926Z,103241.03
2023-02-05T02:29:25.054Z,103234.91
2023-02-05T02:32:00.055Z,103236.63
2023-02-05T02:34:36.923Z,103230.53
2023-02-05T02:37:11.604Z,103228.75
2023-02-05T02:39:41.440Z,103224.41
2023-02-05T02:42:29.940Z,103216.56
2023-02-05T02:45:00.203Z,103216.53
2023-02-05T02:47:31.534Z,103213.03
2023-02-05T02:50:00.873Z,103217.38
2023-02-05T02:52:33.367Z,103219.13
2023-02-05T02:55:05.452Z,103221.75
2023-02-05T02:57:36.480Z,103213.91
2023-02-05T03:00:08.929Z,103211.28
2023-02-05T03:02:37.632Z,103214.78
2023-02-05T03:05:11.452Z,103216.50
2023-02-05T03:07:42.683Z,103221.75
2023-02-05T03:10:14.608Z,103214.78
2023-02-05T03:12:41.089Z,103216.53
2023-02-05T03:15:08.980Z,103219.94
2023-02-05T03:17:36.654Z,103222.63
2023-02-05T03:20:08.168Z,103217.34
2023-02-05T03:22:34.593Z,103214.75
2023-02-05T03:25:02.886Z,103224.34
2023-02-05T03:27:29.467Z,103217.41
2023-02-05T03:29:56.936Z,103219.13
2023-02-05T03:33:00.729Z,103220.00
2023-02-05T03:35:49.614Z,103213.88
2023-02-05T03:38:19.126Z,103205.13
2023-02-05T03:40:52.539Z,103202.53
2023-02-05T03:43:30.940Z,103209.53
2023-02-05T03:46:07.341Z,103209.53
2023-02-05T03:48:59.396Z,103207.78
2023-02-05T03:51:53.249Z,103216.47
2023-02-05T03:54:35.009Z,103212.09
2023-02-05T03:57:11.116Z,103216.47
2023-02-05T03:59:38.820Z,103214.72
2023-02-05T04:02:05.983Z,103217.38
2023-02-05T04:04:32.411Z,103227.84
2023-02-05T04:06:58.867Z,103234.84
2023-02-05T04:09:25.432Z,103233.06
2023-02-05T04:11:51.982Z,103227.84
2023-02-05T04:14:18.422Z,103239.22
2023-02-05T04:16:44.904Z,103240.94
2023-02-05T04:19:11.511Z,103240.94
2023-02-05T04:21:38.166Z,103244.41
2023-02-05T04:24:05.046Z,103234.81
2023-02-05T04:26:31.627Z,103234.84
2023-02-05T04:28:58.090Z,103231.38
2023-02-05T04:31:24.601Z,103227.00
2023-02-05T04:33:51.115Z,103224.38
2023-02-05T04:36:17.593Z,103221.72
2023-02-05T04:38:44.067Z,103235.72
2023-02-05T04:41:10.647Z,103237.31
2023-02-05T04:43:37.220Z,103231.31
2023-02-05T04:46:07.510Z,103232.19
2023-02-05T04:48:34.244Z,103222.63
2023-02-05T04:51:00.769Z,103224.41
2023-02-05T04:53:27.203Z,103222.66
2023-02-05T04:55:54.905Z,103219.16
2023-02-05T04:58:21.513Z,103213.03
2023-02-05T05:00:48.043Z,103208.69
2023-02-05T05:03:14.582Z,103216.53
2023-02-05T05:05:41.044Z,103218.28
2023-02-05T05:08:07.503Z,103220.94
2023-02-05T05:10:33.937Z,103216.53
2023-02-05T05:13:00.486Z,103217.41
2023-02-05T05:15:26.997Z,103214.81
2023-02-05T05:17:53.433Z,103207.88
2023-02-05T05:20:19.949Z,103204.28
2023-02-05T05:22:46.471Z,103200.72
2023-02-05T05:25:13.074Z,103210.28
2023-02-05T05:27:39.549Z,103212.97
2023-02-05T05:30:06.405Z,103211.13
2023-02-05T05:32:32.866Z,103210.38
2023-02-05T05:34:59.432Z,103217.38
2023-02-05T05:37:25.926Z,103229.56
2023-02-05T05:40:10.833Z,103231.38
2023-02-05T05:42:56.815Z,103237.50
2023-02-05T05:45:23.514Z,103243.53
2023-02-05T05:47:50.003Z,103246.13
2023-02-05T05:50:16.590Z,103256.56
2023-02-05T05:52:43.053Z,103248.78
2023-02-05T05:55:09.604Z,103243.53
2023-02-05T05:57:36.014Z,103247.88
2023-02-05T06:00:02.923Z,103239.19
2023-02-05T06:02:29.408Z,103230.47
2023-02-05T06:04:55.888Z,103226.06
2023-02-05T06:07:22.477Z,103230.38
2023-02-05T06:09:48.946Z,103225.19
2023-02-05T06:12:15.650Z,103232.94
2023-02-05T06:14:42.061Z,103231.22
2023-02-05T06:17:08.653Z,103233.81
2023-02-05T06:19:35.163Z,103218.13
2023-02-05T06:22:01.744Z,103218.97
2023-02-05T06:24:30.794Z,103221.56
2023-02-05T06:26:57.501Z,103224.22
2023-02-05T06:29:24.016Z,103223.75
2023-02-05T06:31:51.649Z,103216.16
2023-02-05T06:34:18.134Z,103226.66
2023-02-05T06:36:44.570Z,103227.50
2023-02-05T06:39:12.223Z,103224.19
2023-02-05T06:41:38.660Z,103227.63
2023-02-05T06:44:05.234Z,103229.44
2023-02-05T06:46:31.749Z,103223.41
2023-02-05T06:48:58.225Z,103213.78
2023-02-05T06:51:24.831Z,103221.56
2023-02-05T06:53:52.604Z,103228.41
2023-02-05T06:56:20.273Z,103239.03
2023-02-05T06:58:46.699Z,103252.19
2023-02-05T07:01:13.127Z,103252.13
2023-02-05T07:03:39.618Z,103245.19
2023-02-05T07:06:06.719Z,103243.50
2023-02-05T07:08:34.492Z,103240.84
2023-02-05T07:11:01.600Z,103244.41
2023-02-05T07:13:29.652Z,103241.84
2023-02-05T07:15:56.105Z,103235.72
2023-02-05T07:18:22.620Z,103233.09
2023-02-05T07:20:49.206Z,103226.94
2023-02-05T07:23:15.990Z,103226.06
2023-02-05T07:25:42.520Z,103219.88
2023-02-05T07:28:09.291Z,103222.47
2023-02-05T07:30:36.154Z,103226.97
2023-02-05T07:33:03.606Z,103221.66
2023-02-05T07:35:31.657Z,103225.91
2023-02-05T07:37:58.476Z,103227.78
2023-02-05T07:40:25.242Z,103226.72
2023-02-05T07:42:51.690Z,103224.22
2023-02-05T07:45:18.309Z,103220.66
2023-02-05T07:47:44.976Z,103210.84
2023-02-05T07:50:11.415Z,103208.19
2023-02-05T07:52:37.864Z,103210.06
2023-02-05T07:55:04.506Z,103204.09
2023-02-05T07:57:30.943Z,103203.91
2023-02-05T07:59:57.634Z,103210.97
2023-02-05T08:02:24.706Z,103215.44
2023-02-05T08:04:51.206Z,103212.81
2023-02-05T08:07:17.957Z,103209.31
2023-02-05T08:09:44.407Z,103196.38
2023-02-05T08:12:10.855Z,103198.03
2023-02-05T08:14:37.363Z,103197.13
2023-02-05T08:17:06.129Z,103194.50
2023-02-05T08:19:32.567Z,103191.06
2023-02-05T08:21:59.058Z,103186.75
2023-02-05T08:24:25.628Z,103192.09
2023-02-05T08:26:52.163Z,103197.34
2023-02-05T08:29:18.794Z,103194.78
2023-02-05T08:31:45.287Z,103194.78
2023-02-05T08:34:11.793Z,103195.69
2023-02-05T08:36:38.401Z,103191.31
2023-02-05T08:39:04.837Z,103201.78
2023-02-05T08:41:31.277Z,103195.69
2023-02-05T08:43:57.780Z,103190.47
2023-02-05T08:46:28.193Z,103185.25
2023-02-05T08:48:58.144Z,103184.34
2023-02-05T08:51:24.662Z,103185.25
2023-02-05T08:53:51.213Z,103194.78
2023-02-05T08:56:19.950Z,103181.59
2023-02-05T08:58:46.720Z,103173.00
2023-02-05T09:01:16.032Z,103189.53
2023-02-05T09:03:42.670Z,103186.06
2023-02-05T09:06:13.631Z,103192.19
2023-02-05T09:08:40.607Z,103188.63
2023-02-05T09:11:08.232Z,103186.84
2023-02-05T09:13:34.740Z,103189.56
2023-02-05T09:16:01.356Z,103196.50
2023-02-05T09:18:27.829Z,103186.06
2023-02-05T09:20:54.506Z,103186.97
2023-02-05T09:23:21.451Z,103186.91
2023-02-05T09:25:47.961Z,103180.88
2023-02-05T09:28:15.121Z,103180.84
2023-02-05T09:30:44.948Z,103191.31
2023-02-05T09:33:12.357Z,103181.72
2023-02-05T09:35:39.152Z,103186.13
2023-02-05T09:38:05.724Z,103200.97
2023-02-05T09:40:59.184Z,103188.75
2023-02-05T09:43:51.475Z,103200.06
2023-02-05T09:46:42.185Z,103197.47
2023-02-05T09:49:17.714Z,103199.22
2023-02-05T09:51:51.614Z,103189.56
2023-02-05T09:54:31.645Z,103191.25
2023-02-05T09:57:04.790Z,103191.34
2023-02-05T09:59:32.777Z,103186.09
2023-02-05T10:02:02.955Z,103185.19
2023-02-05T10:04:30.421Z,103187.81
2023-02-05T10:07:14.758Z,103191.28
2023-02-05T10:09:54.873Z,103186.97
2023-02-05T10:12:37.006Z,103184.34
2023-02-05T10:15:22.070Z,103181.66
2023-02-05T10:18:03.653Z,103184.38
2023-02-05T10:20:39.154Z,103179.16
2023-02-05T10:23:17.993Z,103170.38
2023-02-05T10:26:04.065Z,103169.50
2023-02-05T10:28:48.216Z,103158.09
2023-02-05T10:31:38.383Z,103152.81
2023-02-05T10:34:26.706Z,103160.72
2023-02-05T10:36:54.164Z,103149.47
2023-02-05T10:39:25.785Z,103145.06
2023-02-05T10:42:11.623Z,103145.94
2023-02-05T10:44:45.063Z,103147.66
2023-02-05T10:47:50.883Z,103152.88
2023-02-05T10:50:41.171Z,103144.06
2023-02-05T10:53:07.692Z,103142.34
2023-02-05T10:55:34.423Z,103130.16
2023-02-05T10:58:09.750Z,103129.97
2023-02-05T11:00:36.915Z,103130.75
2023-02-05T11:03:05.434Z,103124.50
2023-02-05T11:05:38.597Z,103119.16
2023-02-05T11:08:05.324Z,103114.06
2023-02-05T11:10:34.949Z,103121.81
2023-02-05T11:13:22.015Z,103115.59
2023-02-05T11:16:04.328Z,103124.59
2023-02-05T11:18:38.189Z,103127.75
2023-02-05T11:21:06.241Z,103125.09
2023-02-05T11:23:39.551Z,103121.28
2023-02-05T11:26:18.027Z,103126.25
2023-02-05T11:28:45.115Z,103115.09
2023-02-05T11:31:27.413Z,103116.66
2023-02-05T11:34:15.472Z,103113.94
2023-02-05T11:36:54.594Z,103117.44
2023-02-05T11:39:34.094Z,103116.38
2023-02-05T11:42:11.273Z,103112.97
2023-02-05T11:44:48.365Z,103113.34
2023-02-05T11:47:23.750Z,103111.63
2023-02-05T11:49:51.813Z,103124.69
2023-02-05T11:52:27.259Z,103115.94
2023-02-05T11:54:54.256Z,103124.66
2023-02-05T11:57:20.642Z,103126.56
2023-02-05T12:00:09.466Z,103126.91
2023-02-05T12:02:38.546Z,103123.28
2023-02-05T12:05:28.959Z,103123.66
2023-02-05T12:08:04.992Z,103125.78
2023-02-05T12:10:40.687Z,103124.00
2023-02-05T12:13:48.344Z,103117.31
2023-02-05T12:16:34.993Z,103102.41
2023-02-05T12:19:23.000Z,103111.28
2023-02-05T12:22:10.416Z,103111.53
2023-02-05T12:24:51.658Z,103118.13
2023-02-05T12:27:50.649Z,103106.88
2023-02-05T12:30:32.073Z,103110.63
2023-02-05T12:33:07.522Z,103104.63
2023-02-05T12:35:34.297Z,103098.94
2023-02-05T12:38:31.533Z,103095.25
2023-02-05T12:41:15.701Z,103099.34
2023-02-05T12:43:46.706Z,103099.56
2023-02-05T12:46:41.151Z,103102.22
2023-02-05T12:49:26.434Z,103098.00
2023-02-05T12:52:04.865Z,103097.16
2023-02-05T12:55:03.981Z,103099.59
2023-02-05T12:57:40.597Z,103106.13
2023-02-05T13:00:14.573Z,103110.69
2023-02-05T13:02:51.244Z,103107.38
2023-02-05T13:05:36.861Z,103120.03
2023-02-05T13:08:24.171Z,103118.72
2023-02-05T13:10:57.273Z,103120.97
2023-02-05T13:13:33.192Z,103110.47
2023-02-05T13:16:21.501Z,103120.03
2023-02-05T13:18:58.461Z,103125.09
2023-02-05T13:21:44.158Z,103125.03
2023-02-05T13:24:41.961Z,103120.22
2023-02-05T13:27:41.628Z,103130.16
2023-02-05T13:30:41.296Z,103120.78
2023-02-05T13:33:08.618Z,103107.63
2023-02-05T13:35:53.308Z,103109.06
2023-02-05T13:38:45.903Z,103129.34
2023-02-05T13:41:34.026Z,103138.03
2023-02-05T13:44:38.177Z,103143.66
2023-02-05T13:47:37.822Z,103144.28
2023-02-05T13:50:35.096Z,103144.16
2023-02-05T13:53:06.068Z,103149.31
2023-02-05T13:55:55.900Z,103152.78
2023-02-05T13:58:26.748Z,103146.50
2023-02-05T14:00:55.979Z,103142.22
2023-02-05T14:03:33.619Z,103141.31
2023-02-05T14:06:00.270Z,103137.78
2023-02-05T14:08:34.369Z,103139.59
2023-02-05T14:11:03.938Z,103134.25
2023-02-05T14:13:33.635Z,103128.22
2023-02-05T14:16:24.801Z,103119.53
2023-02-05T14:19:00.531Z,103123.94
2023-02-05T14:21:30.127Z,103133.59
2023-02-05T14:24:23.468Z,103136.13
2023-02-05T14:27:00.433Z,103135.47
2023-02-05T14:29:41.989Z,103123.25
2023-02-05T14:32:29.446Z,103115.28
2023-02-05T14:35:26.046Z,103105.75
2023-02-05T14:37:56.856Z,103094.34
2023-02-05T14:40:34.973Z,103084.84
2023-02-05T14:43:26.638Z,103091.03
2023-02-05T14:45:53.675Z,103087.47
2023-02-05T14:48:33.669Z,103099.66
2023-02-05T14:51:07.832Z,103092.69
2023-02-05T14:53:37.222Z,103094.53
2023-02-05T14:56:05.351Z,103087.50
2023-02-05T14:58:40.707Z,103093.69
2023-02-05T15:01:46.820Z,103106.16
2023-02-05T15:04:24.087Z,103110.50
2023-02-05T15:06:52.230Z,103112.13
2023-02-05T15:09:26.176Z,103120.75
2023-02-05T15:12:21.066Z,103123.41
2023-02-05T15:14:47.462Z,103130.38
2023-02-05T15:17:16.065Z,103132.13
2023-02-05T15:19:55.617Z,103137.41
2023-02-05T15:22:40.980Z,103146.25
2023-02-05T15:25:26.618Z,103148.03
2023-02-05T15:28:01.511Z,103161.97
2023-02-05T15:30:39.246Z,103153.22
2023-02-05T15:33:13.481Z,103152.38
2023-02-05T15:35:42.944Z,103145.50
2023-02-05T15:38:25.192Z,103139.34
2023-02-05T15:40:53.071Z,103143.69
2023-02-05T15:43:23.107Z,103155.97
2023-02-05T15:45:59.214Z,103158.56
2023-02-05T15:48:27.288Z,103162.13
2023-02-05T15:51:04.944Z,103156.84
2023-02-05T15:53:41.557Z,103155.16
2023-02-05T15:56:14.178Z,103157.81
2023-02-05T15:59:06.124Z,103164.81
2023-02-05T16:01:36.746Z,103175.31
2023-02-05T16:04:16.978Z,103182.31
2023-02-05T16:06:43.533Z,103185.81
2023-02-05T16:09:18.790Z,103198.91
2023-02-05T16:11:46.441Z,103184.09
2023-02-05T16:14:15.208Z,103184.94
2023-02-05T16:17:26.797Z,103188.47
2023-02-05T16:20:04.503Z,103191.97
2023-02-05T16:22:45.604Z,103187.66
2023-02-05T16:25:30.736Z,103172.78
2023-02-05T16:27:59.985Z,103178.91
2023-02-05T16:30:34.322Z,103169.31
2023-02-05T16:33:03.452Z,103164.09
2023-02-05T16:35:35.656Z,103172.84
2023-02-05T16:38:03.496Z,103176.34
2023-02-05T16:40:35.782Z,103172.00
2023-02-05T16:43:27.289Z,103174.66
2023-02-05T16:46:08.971Z,103159.81
2023-02-05T16:48:52.621Z,103164.22
2023-02-05T16:51:37.553Z,103176.47
2023-02-05T16:54:29.886Z,103177.31
2023-02-05T16:57:15.940Z,103181.72
2023-02-05T16:59:57.070Z,103192.19
2023-02-05T17:02:35.502Z,103190.44
2023-02-05T17:05:05.847Z,103171.25
2023-02-05T17:07:32.876Z,103170.38
2023-02-05T17:10:19.020Z,103168.63
2023-02-05T17:12:47.662Z,103163.38
2023-02-05T17:15:14.058Z,103166.84
2023-02-05T17:17:59.235Z,103162.50
2023-02-05T17:20:28.219Z,103163.41
2023-02-05T17:23:03.735Z,103165.16
2023-02-05T17:25:38.697Z,103161.66
2023-02-05T17:28:07.622Z,103170.38
2023-02-05T17:30:34.813Z,103159.91
2023-02-05T17:33:14.032Z,103160.78
2023-02-05T17:35:40.437Z,103176.50
2023-02-05T17:38:06.886Z,103180.00
2023-02-05T17:40:33.569Z,103190.47
2023-02-05T17:43:00.230Z,103196.56
2023-02-05T17:45:31.331Z,103214.91
2023-02-05T17:47:57.865Z,103214.03
2023-02-05T17:50:24.314Z,103215.78
2023-02-05T17:52:52.211Z,103214.91
2023-02-05T17:55:20.616Z,103211.44
2023-02-05T17:57:47.185Z,103214.91
2023-02-05T18:00:19.871Z,103213.16
2023-02-05T18:02:46.573Z,103216.66
2023-02-05T18:05:13.213Z,103219.25
2023-02-05T18:07:44.583Z,103223.66
2023-02-05T18:10:12.847Z,103221.91
2023-02-05T18:12:39.557Z,103221.06
2023-02-05T18:15:06.662Z,103232.38
2023-02-05T18:17:33.222Z,103240.22
2023-02-05T18:19:59.672Z,103255.97
2023-02-05T18:22:26.363Z,103256.84
2023-02-05T18:24:52.871Z,103252.47
2023-02-05T18:27:20.022Z,103263.81
2023-02-05T18:29:46.528Z,103270.81
2023-02-05T18:32:12.958Z,103263.81
2023-02-05T18:34:40.008Z,103267.31
2023-02-05T18:37:06.467Z,103258.56
2023-02-05T18:39:32.926Z,103259.44
2023-02-05T18:41:59.406Z,103268.16
2023-02-05T18:44:26.659Z,103266.41
2023-02-05T18:46:54.061Z,103276.06
2023-02-05T18:49:20.674Z,103271.69
2023-02-05T18:51:47.103Z,103269.06
2023-02-05T18:54:13.622Z,103267.28
2023-02-05T18:56:40.238Z,103275.19
2023-02-05T18:59:09.553Z,103274.28
2023-02-05T19:01:38.405Z,103279.50
2023-02-05T19:04:10.651Z,103285.66
2023-02-05T19:06:37.300Z,103288.25
2023-02-05T19:09:04.430Z,103294.38
2023-02-05T19:11:31.539Z,103289.13
2023-02-05T19:14:00.487Z,103294.38
2023-02-05T19:16:27.660Z,103282.13
2023-02-05T19:18:54.693Z,103296.97
2023-02-05T19:21:22.479Z,103296.09
2023-02-05T19:23:51.715Z,103294.38
2023-02-05T19:26:21.771Z,103287.38
2023-02-05T19:28:56.828Z,103289.13
2023-02-05T19:31:25.939Z,103286.50
2023-02-05T19:33:52.608Z,103276.00
2023-02-05T19:36:19.973Z,103277.78
2023-02-05T19:38:46.531Z,103278.63
2023-02-05T19:41:15.771Z,103268.19
2023-02-05T19:43:50.077Z,103264.66
2023-02-05T19:46:20.829Z,103259.44
2023-02-05T19:48:47.946Z,103264.69
2023-02-05T19:51:15.835Z,103260.28
2023-02-05T19:53:45.259Z,103271.63
2023-02-05T19:56:15.178Z,103269.03
2023-02-05T19:58:44.174Z,103267.31
2023-02-05T20:01:24.304Z,103273.41
2023-02-05T20:03:53.000Z,103269.03
2023-02-05T20:06:23.795Z,103265.53
2023-02-05T20:08:50.678Z,103271.66
2023-02-05T20:11:18.598Z,103274.25
2023-02-05T20:13:45.779Z,103262.03
2023-02-05T20:16:18.828Z,103263.78
2023-02-05T20:18:46.601Z,103252.47
2023-02-05T20:21:20.443Z,103261.16
2023-02-05T20:23:48.315Z,103265.50
2023-02-05T20:26:18.898Z,103266.41
2023-02-05T20:29:05.473Z,103262.91
2023-02-05T20:31:35.006Z,103259.41
2023-02-05T20:34:03.144Z,103244.56
2023-02-05T20:36:31.139Z,103261.13
2023-02-05T20:38:58.870Z,103267.25
2023-02-05T20:41:25.294Z,103260.28
2023-02-05T20:43:52.175Z,103257.69
2023-02-05T20:46:18.987Z,103266.41
2023-02-05T20:48:45.827Z,103273.34
2023-02-05T20:51:14.393Z,103267.28
2023-02-05T20:53:41.023Z,103282.94
2023-02-05T20:56:11.349Z,103294.31
2023-02-05T20:58:38.016Z,103289.06
2023-02-05T21:01:13.897Z,103285.53
2023-02-05T21:03:43.883Z,103285.44
2023-02-05T21:06:11.366Z,103288.16
2023-02-05T21:08:39.272Z,103297.75
2023-02-05T21:11:06.502Z,103311.72
2023-02-05T21:13:33.837Z,103330.88
2023-02-05T21:16:00.947Z,103337.88
2023-02-05T21:18:28.811Z,103345.75
2023-02-05T21:20:55.728Z,103345.72
2023-02-05T21:23:22.262Z,103349.22
2023-02-05T21:25:48.720Z,103351.00
2023-02-05T21:28:16.587Z,103356.22
2023-02-05T21:30:44.681Z,103362.31
2023-02-05T21:33:11.129Z,103348.38
2023-02-05T21:35:38.980Z,103349.22
2023-02-05T21:38:05.497Z,103347.44
2023-02-05T21:40:32.082Z,103349.97
2023-02-05T21:42:58.756Z,103353.56
2023-02-05T21:45:25.619Z,103353.56
2023-02-05T21:47:52.074Z,103354.44
2023-02-05T21:50:18.543Z,103366.66
2023-02-05T21:52:45.084Z,103372.75
2023-02-05T21:55:11.805Z,103374.50
2023-02-05T21:57:38.308Z,103373.63
2023-02-05T22:00:05.137Z,103385.00
2023-02-05T22:02:31.601Z,103378.00
2023-02-05T22:04:58.157Z,103374.53
2023-02-05T22:07:24.884Z,103373.66
2023-02-05T22:09:51.324Z,103376.25
2023-02-05T22:12:17.903Z,103378.00
2023-02-05T22:14:44.576Z,103371.00
2023-02-05T22:17:11.143Z,103371.00
2023-02-05T22:19:37.590Z,103351.81
2023-02-05T22:22:04.125Z,103356.19
2023-02-05T22:24:30.733Z,103367.44
2023-02-05T22:26:57.543Z,103360.44
2023-02-05T22:29:24.027Z,103356.97
2023-02-05T22:31:52.269Z,103352.56
2023-02-05T22:34:18.996Z,103360.25
2023-02-05T22:36:45.739Z,103353.25
2023-02-05T22:39:12.498Z,103349.69
2023-02-05T22:41:41.565Z,103352.28
2023-02-05T22:44:09.501Z,103345.34
2023-02-05T22:46:39.889Z,103348.03
2023-02-05T22:49:06.844Z,103339.41
2023-02-05T22:51:39.021Z,103337.53
2023-02-05T22:54:07.529Z,103347.88
2023-02-05T22:56:35.627Z,103343.56
2023-02-05T22:59:03.523Z,103346.25
2023-02-05T23:01:35.889Z,103341.06
2023-02-05T23:04:06.143Z,103339.19
2023-02-05T23:06:38.365Z,103342.81
2023-02-05T23:09:11.276Z,103337.56
2023-02-05T23:11:37.752Z,103334.84
2023-02-05T23:14:05.944Z,103346.28
2023-02-05T23:16:35.600Z,103341.88
2023-02-05T23:19:05.878Z,103340.78
2023-02-05T23:21:34.338Z,103332.88
2023-02-05T23:24:01.372Z,103327.59
2023-02-05T23:26:34.027Z,103316.22
2023-02-05T23:29:01.214Z,103306.59
2023-02-05T23:31:28.593Z,103311.03
2023-02-05T23:33:55.565Z,103310.91
2023-02-05T23:36:22.366Z,103296.88
2023-02-05T23:38:49.148Z,103298.69
2023-02-05T23:41:35.440Z,103289.91
2023-02-05T23:44:22.438Z,103295.94
2023-02-05T23:46:50.410Z,103300.31
2023-02-05T23:49:21.667Z,103288.94
2023-02-05T23:51:52.083Z,103296.03
2023-02-05T23:54:18.727Z,103303.13
2023-02-05T23:56:45.362Z,103312.53
2023-02-05T23:59:13.095Z,103321.28
